Time;durP1;ratioP1;P1;durP2;ratioP2;P2;SDS_P1;SDS_P2;PMS_P1;PMS_P2;Temp;Humidity;BMP_temperature;BMP_pressure;BME280_temperature;BME280_humidity;BME280_pressure;Samples;Min_cycle;Max_cycle;Signal;HPM_P1;HPM_P2
2022/07/31 00:01:54;;;;;;;1.98;1.15;;;23.80;58.30;;;;;;4508948;31;20236;-70
2022/07/31 00:04:22;;;;;;;1.85;1.17;;;23.80;58.30;;;;;;4508986;31;20402;-70
2022/07/31 00:06:49;;;;;;;1.70;0.98;;;23.80;58.30;;;;;;4494405;31;20110;-70
2022/07/31 00:09:15;;;;;;;3.30;1.05;;;23.80;58.30;;;;;;4508868;31;20147;-70
2022/07/31 00:11:44;;;;;;;2.75;1.05;;;23.80;58.30;;;;;;4508627;31;20139;-70
2022/07/31 00:14:11;;;;;;;1.52;1.15;;;23.80;58.30;;;;;;4494556;31;20502;-70
2022/07/31 00:16:37;;;;;;;2.05;1.13;;;23.80;58.30;;;;;;4508627;31;20603;-69
2022/07/31 00:19:03;;;;;;;1.30;0.90;;;23.80;58.30;;;;;;4508787;31;20069;-70
2022/07/31 00:21:28;;;;;;;1.58;1.00;;;23.80;58.30;;;;;;4508970;31;20163;-70
2022/07/31 00:23:55;;;;;;;1.58;0.98;;;23.80;58.30;;;;;;4508755;31;20626;-70
2022/07/31 00:26:21;;;;;;;6.28;1.00;;;23.80;58.30;;;;;;4508705;31;20610;-70
2022/07/31 00:28:47;;;;;;;1.60;1.00;;;23.80;58.30;;;;;;4508660;31;20108;-70
2022/07/31 00:31:13;;;;;;;2.50;1.13;;;23.80;58.30;;;;;;4494024;31;20162;-70
2022/07/31 00:33:39;;;;;;;1.33;0.98;;;23.80;59.20;;;;;;4508843;31;20154;-70
2022/07/31 00:36:05;;;;;;;2.33;1.25;;;23.80;58.30;;;;;;4508723;31;20073;-70
2022/07/31 00:38:30;;;;;;;1.25;1.00;;;23.80;58.30;;;;;;4508676;31;20207;-70
2022/07/31 00:40:56;;;;;;;3.08;1.10;;;23.80;58.30;;;;;;4495065;31;20075;-70
2022/07/31 00:43:22;;;;;;;2.97;1.20;;;23.80;58.30;;;;;;4509022;31;20506;-70
2022/07/31 00:45:49;;;;;;;1.63;0.80;;;23.80;58.30;;;;;;4495057;31;20072;-70
2022/07/31 00:48:15;;;;;;;2.30;1.20;;;23.80;58.30;;;;;;4494607;31;20103;-70
2022/07/31 00:50:41;;;;;;;2.42;1.13;;;23.80;58.30;;;;;;4509455;31;20486;-70
2022/07/31 00:53:06;;;;;;;2.58;1.30;;;23.80;58.30;;;;;;4509111;31;20127;-70
2022/07/31 00:55:32;;;;;;;1.55;1.13;;;23.80;58.30;;;;;;4494800;31;20096;-70
2022/07/31 00:57:58;;;;;;;2.17;1.10;;;23.80;58.30;;;;;;4494562;31;20394;-70
2022/07/31 01:00:24;;;;;;;3.35;1.20;;;23.80;58.30;;;;;;4509043;31;20149;-70
2022/07/31 01:02:50;;;;;;;2.03;0.98;;;23.80;58.40;;;;;;4509040;31;20081;-70
2022/07/31 01:05:17;;;;;;;2.25;1.08;;;23.80;58.30;;;;;;4508701;31;20094;-70
2022/07/31 01:07:45;;;;;;;1.30;0.90;;;23.80;58.30;;;;;;4508979;31;20065;-70
2022/07/31 01:10:15;;;;;;;3.00;0.82;;;23.80;58.40;;;;;;4494398;31;20088;-70
2022/07/31 01:12:53;;;;;;;1.92;0.90;;;23.80;58.40;;;;;;4508325;31;20077;-69
2022/07/31 01:15:21;;;;;;;2.45;1.15;;;23.70;58.30;;;;;;4509290;31;20497;-70
2022/07/31 01:17:49;;;;;;;1.27;0.80;;;23.80;58.40;;;;;;4508684;31;20173;-70
2022/07/31 01:20:16;;;;;;;2.00;0.90;;;23.70;58.30;;;;;;4508734;31;20213;-69
2022/07/31 01:23:00;;;;;;;1.77;1.00;;;23.70;58.30;;;;;;4508925;31;20426;-70
2022/07/31 01:25:57;;;;;;;2.40;1.00;;;23.70;58.20;;;;;;4508775;31;20073;-70
2022/07/31 01:28:55;;;;;;;1.80;0.95;;;23.70;58.20;;;;;;4508712;31;20123;-70
2022/07/31 01:31:29;;;;;;;1.70;0.90;;;23.70;58.30;;;;;;4508235;31;20214;-70
2022/07/31 01:34:14;;;;;;;1.33;1.00;;;23.70;58.30;;;;;;4508921;31;20088;-70
2022/07/31 01:36:45;;;;;;;1.20;0.93;;;23.70;58.30;;;;;;4508724;31;20509;-70
2022/07/31 01:39:12;;;;;;;1.30;0.90;;;23.70;58.30;;;;;;4508344;31;20085;-70
2022/07/31 01:41:42;;;;;;;2.25;1.23;;;23.70;58.30;;;;;;4508371;31;20216;-70
2022/07/31 01:44:09;;;;;;;1.90;1.10;;;23.70;58.30;;;;;;4508974;31;20128;-70
2022/07/31 01:46:37;;;;;;;1.90;1.02;;;23.70;58.30;;;;;;4508303;31;20088;-70
2022/07/31 01:49:04;;;;;;;1.45;0.93;;;23.70;58.30;;;;;;4508341;31;20087;-70
2022/07/31 01:51:31;;;;;;;2.58;1.00;;;23.70;58.30;;;;;;4508330;31;20065;-70
2022/07/31 01:54:00;;;;;;;0.95;0.80;;;23.70;58.30;;;;;;4508272;31;20073;-69
2022/07/31 01:56:27;;;;;;;1.42;0.90;;;23.70;58.30;;;;;;4508170;31;20081;-69
2022/07/31 01:58:54;;;;;;;1.27;0.80;;;23.70;58.30;;;;;;4508409;31;20173;-70
2022/07/31 02:01:22;;;;;;;1.77;0.90;;;23.70;58.30;;;;;;4507970;31;20422;-70
2022/07/31 02:03:48;;;;;;;1.27;0.85;;;23.70;58.30;;;;;;4508098;31;20108;-70
2022/07/31 02:06:17;;;;;;;2.00;1.00;;;23.70;58.40;;;;;;4493975;31;20510;-70
2022/07/31 02:08:46;;;;;;;1.77;1.10;;;23.70;58.30;;;;;;4508057;31;20080;-70
2022/07/31 02:11:14;;;;;;;1.85;0.88;;;23.70;58.30;;;;;;4507772;31;20119;-69
2022/07/31 02:13:41;;;;;;;1.60;1.00;;;23.70;58.40;;;;;;4508005;31;20095;-70
2022/07/31 02:16:07;;;;;;;1.40;0.98;;;23.70;58.40;;;;;;4507836;31;20072;-70
2022/07/31 02:18:34;;;;;;;1.40;0.82;;;23.60;58.30;;;;;;4507879;31;20083;-70
2022/07/31 02:21:00;;;;;;;2.83;1.13;;;23.60;58.30;;;;;;4493853;31;20211;-70
2022/07/31 02:23:26;;;;;;;1.17;0.80;;;23.60;58.30;;;;;;4507772;31;20065;-70
2022/07/31 02:25:53;;;;;;;1.98;0.73;;;23.60;58.30;;;;;;4507673;31;20088;-70
2022/07/31 02:28:21;;;;;;;1.00;0.85;;;23.60;58.30;;;;;;4507577;31;20085;-70
2022/07/31 02:30:48;;;;;;;1.38;1.05;;;23.60;58.30;;;;;;4507591;31;20092;-70
2022/07/31 02:33:20;;;;;;;1.42;0.80;;;23.60;58.30;;;;;;4508105;31;20073;-70
2022/07/31 02:35:49;;;;;;;1.30;0.80;;;23.60;58.30;;;;;;4507731;31;20438;-70
2022/07/31 02:38:18;;;;;;;1.05;0.65;;;23.60;58.40;;;;;;4507571;31;20072;-69
2022/07/31 02:40:44;;;;;;;1.73;0.93;;;23.60;58.40;;;;;;4507740;31;20502;-70
2022/07/31 02:43:12;;;;;;;1.25;0.70;;;23.60;58.40;;;;;;4507785;31;20213;-70
2022/07/31 02:45:39;;;;;;;1.38;0.90;;;23.60;58.30;;;;;;4508003;31;20219;-70
2022/07/31 02:48:06;;;;;;;1.27;0.85;;;23.60;58.40;;;;;;4507647;31;20092;-70
2022/07/31 02:50:32;;;;;;;1.25;0.90;;;23.60;58.30;;;;;;4507706;31;20487;-70
2022/07/31 02:52:58;;;;;;;1.83;0.93;;;23.60;58.40;;;;;;4507924;31;20249;-69
2022/07/31 02:55:24;;;;;;;1.15;0.57;;;23.60;58.40;;;;;;4507899;31;20242;-70
2022/07/31 02:57:50;;;;;;;1.02;0.73;;;23.60;58.30;;;;;;4507753;31;20369;-69
2022/07/31 03:00:21;;;;;;;0.98;0.85;;;23.60;58.40;;;;;;4493173;31;20398;-70
2022/07/31 03:02:49;;;;;;;1.20;0.82;;;23.60;58.40;;;;;;4507755;31;20097;-70
2022/07/31 03:05:15;;;;;;;2.40;0.90;;;23.60;58.40;;;;;;4507289;31;20168;-70
2022/07/31 03:07:42;;;;;;;2.15;0.82;;;23.60;58.30;;;;;;4507750;31;20127;-70
2022/07/31 03:10:11;;;;;;;1.65;1.10;;;23.60;58.40;;;;;;4507502;31;20131;-70
2022/07/31 03:12:44;;;;;;;0.85;0.68;;;23.60;58.40;;;;;;4507324;31;20116;-70
2022/07/31 03:15:16;;;;;;;2.80;1.10;;;23.60;58.40;;;;;;4493237;31;20277;-70
2022/07/31 03:17:43;;;;;;;1.90;1.05;;;23.60;58.40;;;;;;4507308;31;20069;-69
2022/07/31 03:20:10;;;;;;;1.33;0.80;;;23.60;58.40;;;;;;4507401;31;20081;-70
2022/07/31 03:22:38;;;;;;;0.80;0.77;;;23.60;58.40;;;;;;4507446;31;20089;-70
2022/07/31 03:25:05;;;;;;;1.52;0.93;;;23.60;58.40;;;;;;4507172;31;20169;-70
2022/07/31 03:27:32;;;;;;;1.33;0.80;;;23.60;58.40;;;;;;4492932;31;20437;-70
2022/07/31 03:29:57;;;;;;;1.88;1.02;;;23.60;58.40;;;;;;4507109;31;20128;-70
2022/07/31 03:32:23;;;;;;;1.38;0.73;;;23.60;58.40;;;;;;4507316;31;20215;-70
2022/07/31 03:34:50;;;;;;;1.42;0.88;;;23.60;58.40;;;;;;4507629;31;20088;-70
2022/07/31 03:37:15;;;;;;;1.85;0.90;;;23.60;58.40;;;;;;4495733;31;20383;-70
2022/07/31 03:39:42;;;;;;;1.65;0.70;;;23.60;58.40;;;;;;4509845;31;20157;-70
2022/07/31 03:42:08;;;;;;;1.73;0.80;;;23.50;58.30;;;;;;4510200;31;20226;-70
2022/07/31 03:44:35;;;;;;;1.17;0.77;;;23.50;58.30;;;;;;4510207;31;20202;-69
2022/07/31 03:47:02;;;;;;;1.13;0.80;;;23.50;58.30;;;;;;4509828;31;20597;-70
2022/07/31 03:49:29;;;;;;;1.25;0.80;;;23.50;58.30;;;;;;4510092;31;20115;-70
2022/07/31 03:51:55;;;;;;;1.02;0.73;;;23.50;58.30;;;;;;4510465;31;20069;-70
2022/07/31 03:54:21;;;;;;;1.92;0.80;;;23.50;58.30;;;;;;4509782;31;20083;-70
2022/07/31 03:56:49;;;;;;;1.65;0.90;;;23.50;58.30;;;;;;4510242;31;20069;-70
2022/07/31 03:59:16;;;;;;;1.40;0.90;;;23.50;58.30;;;;;;4509721;31;20611;-70
2022/07/31 04:01:44;;;;;;;1.05;0.90;;;23.50;58.30;;;;;;4509677;31;20239;-69
2022/07/31 04:04:12;;;;;;;0.80;0.60;;;23.50;58.30;;;;;;4510007;31;20080;-70
2022/07/31 04:06:39;;;;;;;1.63;1.02;;;23.50;58.30;;;;;;4509809;31;20143;-70
2022/07/31 04:09:05;;;;;;;2.03;0.90;;;23.50;58.30;;;;;;4509807;31;20089;-70
2022/07/31 04:11:31;;;;;;;1.00;0.82;;;23.50;58.30;;;;;;4509809;31;20516;-70
2022/07/31 04:13:57;;;;;;;1.58;0.75;;;23.50;58.30;;;;;;4509725;31;20087;-69
2022/07/31 04:16:23;;;;;;;1.38;1.00;;;23.50;58.40;;;;;;4509708;31;20401;-70
2022/07/31 04:18:48;;;;;;;0.98;0.80;;;23.50;58.30;;;;;;4509860;31;20065;-69
2022/07/31 04:21:14;;;;;;;1.73;0.98;;;23.50;58.40;;;;;;4509639;31;20201;-69
2022/07/31 04:23:40;;;;;;;0.98;0.70;;;23.50;58.30;;;;;;4509849;31;20076;-70
2022/07/31 04:26:06;;;;;;;1.30;0.80;;;23.50;58.30;;;;;;4509593;31;20199;-70
2022/07/31 04:28:32;;;;;;;0.77;0.70;;;23.50;58.40;;;;;;4509893;31;20080;-70
2022/07/31 04:30:58;;;;;;;1.05;0.70;;;23.50;58.30;;;;;;4509516;31;20120;-70
2022/07/31 04:33:24;;;;;;;1.20;0.80;;;23.50;58.40;;;;;;4509747;31;20080;-69
2022/07/31 04:35:51;;;;;;;2.05;0.85;;;23.50;58.40;;;;;;4509074;31;20076;-70
2022/07/31 04:38:17;;;;;;;1.00;0.80;;;23.50;58.30;;;;;;4509214;31;20088;-70
2022/07/31 04:40:43;;;;;;;1.23;0.75;;;23.50;58.30;;;;;;4509105;31;20065;-70
2022/07/31 04:43:09;;;;;;;1.17;0.70;;;23.50;58.40;;;;;;4509371;31;20172;-70
2022/07/31 04:45:35;;;;;;;1.70;0.88;;;23.50;58.40;;;;;;4509049;31;20077;-70
2022/07/31 04:48:01;;;;;;;0.70;0.70;;;23.50;58.40;;;;;;4508183;31;20104;-70
2022/07/31 04:50:26;;;;;;;1.10;0.70;;;23.50;58.40;;;;;;4509325;31;20079;-69
2022/07/31 04:52:53;;;;;;;0.90;0.80;;;23.50;59.30;;;;;;4509200;31;20510;-69
2022/07/31 04:55:19;;;;;;;1.05;0.80;;;23.50;58.40;;;;;;4509402;31;20166;-69
2022/07/31 04:57:45;;;;;;;0.82;0.70;;;23.50;58.30;;;;;;4494535;31;20081;-70
2022/07/31 05:00:11;;;;;;;0.88;0.77;;;23.40;58.30;;;;;;4509359;31;20100;-69
2022/07/31 05:02:39;;;;;;;0.82;0.65;;;23.40;58.40;;;;;;4508781;31;20084;-70
2022/07/31 05:05:05;;;;;;;0.90;0.80;;;23.40;58.30;;;;;;4508739;31;20095;-69
2022/07/31 05:07:31;;;;;;;0.98;0.80;;;23.40;58.40;;;;;;4494665;31;20131;-70
2022/07/31 05:09:57;;;;;;;1.05;0.77;;;23.40;58.30;;;;;;4508735;31;20494;-70
2022/07/31 05:12:23;;;;;;;0.85;0.70;;;23.40;58.40;;;;;;4494655;31;20193;-69
2022/07/31 05:14:50;;;;;;;0.80;0.80;;;23.40;58.30;;;;;;4509171;31;20620;-70
2022/07/31 05:17:16;;;;;;;0.77;0.63;;;23.40;58.40;;;;;;4508662;31;20068;-70
2022/07/31 05:19:41;;;;;;;1.08;0.77;;;23.40;58.40;;;;;;4508771;31;20502;-70
2022/07/31 05:22:07;;;;;;;1.20;0.80;;;23.40;58.40;;;;;;4508778;31;20112;-70
2022/07/31 05:24:33;;;;;;;0.88;0.80;;;23.40;58.40;;;;;;4508416;31;20490;-70
2022/07/31 05:26:59;;;;;;;0.93;0.82;;;23.40;58.40;;;;;;4508683;31;20238;-70
2022/07/31 05:29:26;;;;;;;1.00;0.63;;;23.40;58.40;;;;;;4508418;31;20556;-69
2022/07/31 05:31:52;;;;;;;0.77;0.65;;;23.40;58.40;;;;;;4508925;31;20578;-70
2022/07/31 05:34:18;;;;;;;1.02;0.68;;;23.40;58.40;;;;;;4508625;31;20277;-70
2022/07/31 05:36:43;;;;;;;0.70;0.68;;;23.40;58.40;;;;;;4508251;31;20647;-70
2022/07/31 05:39:11;;;;;;;0.98;0.73;;;23.40;58.40;;;;;;4508254;31;20176;-69
2022/07/31 05:41:37;;;;;;;1.17;0.73;;;23.40;58.40;;;;;;4508474;31;20445;-70
2022/07/31 05:44:03;;;;;;;0.95;0.65;;;23.40;58.40;;;;;;4508782;31;20076;-69
2022/07/31 05:46:29;;;;;;;0.82;0.80;;;23.40;58.40;;;;;;4508445;31;20085;-69
2022/07/31 05:48:55;;;;;;;1.30;0.70;;;23.40;58.40;;;;;;4508347;31;20057;-69
2022/07/31 05:51:21;;;;;;;0.70;0.70;;;23.40;58.40;;;;;;4494275;31;20174;-69
2022/07/31 05:53:47;;;;;;;0.93;0.60;;;23.40;58.40;;;;;;4493742;31;20394;-70
2022/07/31 05:56:13;;;;;;;1.23;0.73;;;23.40;59.30;;;;;;4508184;31;20086;-69
2022/07/31 05:58:38;;;;;;;0.77;0.70;;;23.40;58.30;;;;;;4507921;31;20085;-70
2022/07/31 06:01:05;;;;;;;1.55;0.80;;;23.40;58.30;;;;;;4508153;31;20098;-70
2022/07/31 06:03:34;;;;;;;1.23;0.70;;;23.40;58.40;;;;;;4493608;31;20502;-70
2022/07/31 06:06:02;;;;;;;0.50;0.50;;;23.40;58.30;;;;;;4508131;31;20501;-70
2022/07/31 06:08:28;;;;;;;1.10;0.82;;;23.50;58.40;;;;;;4494021;31;20099;-69
2022/07/31 06:10:54;;;;;;;1.38;0.90;;;23.40;58.30;;;;;;4507817;31;20486;-69
2022/07/31 06:13:24;;;;;;;1.50;0.80;;;23.40;58.30;;;;;;4508339;31;20226;-70
2022/07/31 06:15:50;;;;;;;1.30;0.80;;;23.40;58.40;;;;;;4494020;31;20091;-70
2022/07/31 06:18:16;;;;;;;1.17;0.73;;;23.40;58.30;;;;;;4493401;31;20085;-69
2022/07/31 06:20:42;;;;;;;1.40;0.73;;;23.40;58.30;;;;;;4507921;31;20476;-70
2022/07/31 06:23:08;;;;;;;1.08;0.73;;;23.40;58.30;;;;;;4507630;31;20065;-70
2022/07/31 06:25:33;;;;;;;1.10;0.90;;;23.40;58.30;;;;;;4508141;31;20079;-69
2022/07/31 06:27:59;;;;;;;3.97;0.63;;;23.40;58.30;;;;;;4507618;31;20092;-68
2022/07/31 06:30:26;;;;;;;0.90;0.70;;;23.40;58.40;;;;;;4493642;31;20088;-69
2022/07/31 06:32:52;;;;;;;2.53;0.90;;;23.40;58.40;;;;;;4507824;31;20080;-68
2022/07/31 06:35:18;;;;;;;1.30;1.00;;;23.40;58.40;;;;;;4493627;31;20112;-68
2022/07/31 06:37:44;;;;;;;1.85;1.20;;;23.40;58.30;;;;;;4507571;31;20073;-69
2022/07/31 06:40:10;;;;;;;3.40;0.90;;;23.40;58.40;;;;;;4507867;31;20230;-68
2022/07/31 06:42:36;;;;;;;3.17;1.25;;;23.40;58.20;;;;;;4507722;31;20533;-69
2022/07/31 06:45:02;;;;;;;3.30;1.45;;;23.40;58.10;;;;;;4508035;31;20210;-69
2022/07/31 06:47:28;;;;;;;1.88;1.13;;;23.40;58.00;;;;;;4507850;31;20209;-69
2022/07/31 06:49:55;;;;;;;3.30;1.20;;;23.40;58.00;;;;;;4507481;31;20090;-68
2022/07/31 06:52:20;;;;;;;2.08;1.30;;;23.40;58.00;;;;;;4507936;31;20399;-69
2022/07/31 06:54:46;;;;;;;3.53;1.55;;;23.40;57.90;;;;;;4493374;31;20079;-69
2022/07/31 06:57:12;;;;;;;4.82;1.45;;;23.40;57.90;;;;;;4507578;31;20529;-69
2022/07/31 06:59:38;;;;;;;3.80;1.25;;;23.40;58.00;;;;;;4507586;31;20108;-69
2022/07/31 07:02:04;;;;;;;5.63;1.42;;;23.40;57.90;;;;;;4507873;31;20599;-69
2022/07/31 07:04:30;;;;;;;1.95;1.05;;;23.40;58.00;;;;;;4507568;31;20061;-69
2022/07/31 07:06:56;;;;;;;2.13;1.38;;;23.40;58.00;;;;;;4493080;31;20185;-69
2022/07/31 07:09:22;;;;;;;3.42;1.42;;;23.50;58.10;;;;;;4507841;31;20080;-69
2022/07/31 07:11:47;;;;;;;1.83;1.40;;;23.40;58.00;;;;;;4495552;31;20076;-69
2022/07/31 07:14:15;;;;;;;2.28;1.30;;;23.50;58.10;;;;;;4510696;31;20069;-68
2022/07/31 07:16:40;;;;;;;3.22;1.45;;;23.50;58.10;;;;;;4510521;31;20525;-69
2022/07/31 07:19:06;;;;;;;5.03;1.52;;;23.50;58.10;;;;;;4510494;31;20153;-69
2022/07/31 07:21:32;;;;;;;4.47;1.42;;;23.40;58.00;;;;;;4510760;31;20209;-70
2022/07/31 07:23:58;;;;;;;6.25;1.45;;;23.50;58.00;;;;;;4510715;31;20100;-69
2022/07/31 07:26:24;;;;;;;2.13;1.40;;;23.50;58.00;;;;;;4495997;31;20069;-69
2022/07/31 07:28:49;;;;;;;4.63;1.55;;;23.40;57.90;;;;;;4510678;31;20080;-69
2022/07/31 07:31:16;;;;;;;3.47;1.60;;;23.40;58.00;;;;;;4496129;31;20426;-69
2022/07/31 07:33:42;;;;;;;3.70;1.63;;;23.40;58.00;;;;;;4496147;31;20083;-69
2022/07/31 07:36:11;;;;;;;6.22;1.92;;;23.40;57.90;;;;;;4510248;31;20099;-69
2022/07/31 07:38:37;;;;;;;3.97;1.70;;;23.50;58.00;;;;;;4509984;31;20231;-69
2022/07/31 07:41:03;;;;;;;2.75;1.63;;;23.40;57.90;;;;;;4510252;31;20067;-69
2022/07/31 07:43:28;;;;;;;3.63;1.35;;;23.40;57.90;;;;;;4510208;31;20250;-69
2022/07/31 07:45:54;;;;;;;3.78;1.52;;;23.40;58.00;;;;;;4510095;31;20108;-68
2022/07/31 07:48:20;;;;;;;2.75;1.50;;;23.40;58.00;;;;;;4510040;31;20186;-69
2022/07/31 07:50:46;;;;;;;2.80;1.63;;;23.40;58.00;;;;;;4509948;31;20124;-69
2022/07/31 07:53:12;;;;;;;3.83;1.75;;;23.40;58.00;;;;;;4509983;31;20077;-69
2022/07/31 07:55:38;;;;;;;2.78;1.65;;;23.50;58.00;;;;;;4509705;31;20219;-69
2022/07/31 07:58:04;;;;;;;1.85;1.55;;;23.50;58.00;;;;;;4509647;31;20139;-69
2022/07/31 08:00:30;;;;;;;2.00;1.55;;;23.40;58.00;;;;;;4510253;31;20079;-69
2022/07/31 08:02:56;;;;;;;2.10;1.38;;;23.50;58.00;;;;;;4509947;31;20081;-69
2022/07/31 08:05:22;;;;;;;4.03;1.90;;;23.50;58.10;;;;;;4509855;31;20379;-69
2022/07/31 08:07:47;;;;;;;2.67;1.45;;;23.50;58.10;;;;;;4509637;31;20073;-69
2022/07/31 08:10:17;;;;;;;3.17;1.70;;;23.50;58.10;;;;;;4509752;31;20181;-68
2022/07/31 08:12:44;;;;;;;2.92;1.70;;;23.50;58.10;;;;;;4509559;31;20088;-69
2022/07/31 08:15:11;;;;;;;5.75;1.55;;;23.50;58.40;;;;;;4509517;31;20149;-69
2022/07/31 08:17:36;;;;;;;2.92;1.88;;;23.50;58.10;;;;;;4509556;31;20100;-69
2022/07/31 08:20:03;;;;;;;5.03;1.80;;;23.50;58.10;;;;;;4509699;31;20077;-69
2022/07/31 08:22:29;;;;;;;3.60;1.60;;;23.50;58.10;;;;;;4509230;31;20128;-69
2022/07/31 08:24:55;;;;;;;4.35;1.90;;;23.50;58.10;;;;;;4509868;31;20153;-67
2022/07/31 08:27:26;;;;;;;1.65;1.52;;;23.50;58.20;;;;;;4509320;31;20169;-68
2022/07/31 08:29:57;;;;;;;5.28;1.80;;;23.50;58.20;;;;;;4509633;31;20073;-68
2022/07/31 08:32:27;;;;;;;2.67;1.73;;;23.50;58.30;;;;;;4509490;31;20554;-68
2022/07/31 08:34:54;;;;;;;3.42;1.92;;;23.50;58.30;;;;;;4509681;31;20080;-68
2022/07/31 08:37:20;;;;;;;2.67;1.65;;;23.50;58.30;;;;;;4509390;31;20092;-69
2022/07/31 08:39:47;;;;;;;5.60;1.77;;;23.50;58.30;;;;;;4508951;31;20073;-67
2022/07/31 08:42:13;;;;;;;4.18;1.70;;;23.50;58.30;;;;;;4509352;31;20072;-68
2022/07/31 08:44:40;;;;;;;5.30;2.35;;;23.50;58.30;;;;;;4494946;31;20523;-68
2022/07/31 08:47:07;;;;;;;4.47;1.98;;;23.50;58.50;;;;;;4509409;31;20139;-68
2022/07/31 08:49:52;;;;;;;4.13;2.33;;;23.50;58.70;;;;;;4509094;31;20080;-69
2022/07/31 08:52:23;;;;;;;3.35;2.10;;;23.50;58.90;;;;;;4509595;31;20083;-68
2022/07/31 08:54:50;;;;;;;4.57;2.20;;;23.50;59.00;;;;;;4509383;31;20113;-67
2022/07/31 08:57:16;;;;;;;4.60;2.10;;;23.50;59.10;;;;;;4509339;31;20548;-68
2022/07/31 08:59:42;;;;;;;3.60;2.10;;;23.50;59.20;;;;;;4509327;31;20540;-68
2022/07/31 09:02:10;;;;;;;4.50;2.47;;;23.50;59.20;;;;;;4509031;31;20108;-68
2022/07/31 09:04:36;;;;;;;4.43;2.42;;;23.50;59.40;;;;;;4509026;31;20068;-68
2022/07/31 09:07:02;;;;;;;3.75;2.35;;;23.50;59.60;;;;;;4508969;31;20402;-67
2022/07/31 09:09:29;;;;;;;2.72;2.08;;;23.50;59.70;;;;;;4508632;31;20292;-72
2022/07/31 09:11:56;;;;;;;6.10;2.85;;;23.50;59.80;;;;;;4508647;31;20077;-67
2022/07/31 09:14:33;;;;;;;7.82;2.58;;;23.50;60.00;;;;;;4508808;31;20088;-67
2022/07/31 09:17:01;;;;;;;3.83;2.50;;;23.50;60.20;;;;;;4508772;31;20197;-67
2022/07/31 09:19:41;;;;;;;3.65;2.53;;;23.50;60.30;;;;;;4508678;31;20084;-67
2022/07/31 09:22:22;;;;;;;3.67;2.40;;;23.50;60.50;;;;;;4508733;31;20092;-67
2022/07/31 09:24:48;;;;;;;4.68;2.58;;;23.50;60.60;;;;;;4508739;31;20076;-67
2022/07/31 09:27:16;;;;;;;5.50;2.67;;;23.50;61.60;;;;;;4508610;31;20162;-67
2022/07/31 09:29:44;;;;;;;4.88;2.78;;;23.50;60.90;;;;;;4508309;31;20085;-67
2022/07/31 09:32:12;;;;;;;6.30;2.65;;;23.50;61.10;;;;;;4508569;31;20085;-67
2022/07/31 09:34:40;;;;;;;5.97;3.00;;;23.50;61.10;;;;;;4508085;31;20096;-67
2022/07/31 09:37:12;;;;;;;4.32;2.75;;;23.50;61.30;;;;;;4508697;31;20092;-67
2022/07/31 09:39:38;;;;;;;3.10;2.38;;;23.50;61.50;;;;;;4508008;31;20399;-67
2022/07/31 09:42:05;;;;;;;3.67;2.55;;;23.50;61.70;;;;;;4508405;31;20080;-67
2022/07/31 09:44:42;;;;;;;5.43;3.00;;;23.50;61.80;;;;;;4508392;31;20128;-67
2022/07/31 09:47:29;;;;;;;4.40;2.95;;;23.50;62.20;;;;;;4508490;31;20162;-67
2022/07/31 09:50:00;;;;;;;6.50;2.67;;;23.50;63.30;;;;;;4508431;31;20095;-67
2022/07/31 09:52:27;;;;;;;6.22;3.17;;;23.50;63.30;;;;;;4508360;31;20406;-67
2022/07/31 09:55:13;;;;;;;6.68;3.40;;;23.50;62.50;;;;;;4508244;31;20130;-67
2022/07/31 09:57:51;;;;;;;6.43;3.40;;;23.50;62.90;;;;;;4508238;31;20116;-67
2022/07/31 10:00:17;;;;;;;4.78;2.97;;;23.50;62.90;;;;;;4508610;31;20226;-67
2022/07/31 10:02:43;;;;;;;6.18;3.40;;;23.50;63.00;;;;;;4494134;31;20165;-67
2022/07/31 10:05:10;;;;;;;5.45;3.42;;;23.50;63.20;;;;;;4508135;31;20128;-67
2022/07/31 10:07:39;;;;;;;6.40;3.38;;;23.50;63.40;;;;;;4508098;31;20162;-68
2022/07/31 10:10:07;;;;;;;8.50;3.38;;;23.50;63.50;;;;;;4508035;31;20072;-67
2022/07/31 10:12:38;;;;;;;4.95;3.55;;;23.50;63.70;;;;;;4508089;31;20083;-67
2022/07/31 10:15:08;;;;;;;4.95;3.50;;;23.50;63.80;;;;;;4507991;31;20161;-67
2022/07/31 10:17:38;;;;;;;4.45;3.70;;;23.50;64.10;;;;;;4507762;31;20536;-67
2022/07/31 10:20:06;;;;;;;8.00;4.32;;;23.50;64.40;;;;;;4508287;31;20068;-67
2022/07/31 10:22:43;;;;;;;5.20;3.50;;;23.50;64.60;;;;;;4507672;31;20076;-68
2022/07/31 10:25:12;;;;;;;8.02;3.17;;;23.50;64.70;;;;;;4507957;31;20084;-67
2022/07/31 10:27:39;;;;;;;4.88;3.22;;;23.50;64.60;;;;;;4507587;31;20094;-67
2022/07/31 10:30:06;;;;;;;5.88;3.10;;;23.50;64.70;;;;;;4507676;31;20076;-67
2022/07/31 10:32:33;;;;;;;7.53;3.55;;;23.50;64.80;;;;;;4507547;31;20651;-67
2022/07/31 10:35:02;;;;;;;4.60;3.55;;;23.50;64.80;;;;;;4507807;31;20124;-67
2022/07/31 10:37:37;;;;;;;7.88;3.47;;;23.50;65.00;;;;;;4507488;31;20080;-67
2022/07/31 10:40:20;;;;;;;5.18;3.47;;;23.50;65.10;;;;;;4507506;31;20087;-67
2022/07/31 10:43:17;;;;;;;4.72;3.55;;;23.50;65.20;;;;;;4507826;31;20158;-67
2022/07/31 10:45:51;;;;;;;7.88;3.70;;;23.50;65.40;;;;;;4510072;31;20087;-67
2022/07/31 10:48:17;;;;;;;7.63;3.83;;;23.50;65.50;;;;;;4510959;31;20091;-67
2022/07/31 10:50:44;;;;;;;5.45;3.78;;;23.50;65.60;;;;;;4510923;31;20157;-67
2022/07/31 10:53:12;;;;;;;7.85;3.60;;;23.50;65.60;;;;;;4510890;31;20093;-67
2022/07/31 10:55:38;;;;;;;3.67;3.33;;;23.50;65.80;;;;;;4510979;31;20475;-67
2022/07/31 10:58:08;;;;;;;4.50;3.30;;;23.50;65.60;;;;;;4483108;31;20099;-67
2022/07/31 11:00:34;;;;;;;6.78;3.50;;;23.50;65.50;;;;;;4510784;31;20170;-67
2022/07/31 11:03:12;;;;;;;9.13;4.00;;;23.50;65.50;;;;;;4510742;31;20173;-67
2022/07/31 11:05:38;;;;;;;6.65;3.85;;;23.50;65.70;;;;;;4511108;31;20153;-67
2022/07/31 11:08:06;;;;;;;6.97;3.90;;;23.50;65.80;;;;;;4510426;31;20080;-67
2022/07/31 11:10:32;;;;;;;7.30;3.80;;;23.50;65.90;;;;;;4510359;31;20069;-67
2022/07/31 11:13:09;;;;;;;7.95;3.40;;;23.50;65.90;;;;;;4510338;31;20085;-67
2022/07/31 11:15:38;;;;;;;10.02;3.70;;;23.50;66.00;;;;;;4510707;31;20150;-67
2022/07/31 11:18:15;;;;;;;6.47;3.90;;;23.50;65.90;;;;;;4510163;31;20222;-67
2022/07/31 11:20:45;;;;;;;7.43;4.22;;;23.50;66.00;;;;;;4495884;31;20201;-67
2022/07/31 11:23:14;;;;;;;7.40;4.35;;;23.50;66.20;;;;;;4495701;31;20069;-67
2022/07/31 11:25:40;;;;;;;7.63;4.22;;;23.50;67.20;;;;;;4510387;31;20637;-67
2022/07/31 11:28:22;;;;;;;7.57;3.88;;;23.50;66.40;;;;;;4496172;31;20088;-67
2022/07/31 11:30:52;;;;;;;7.82;4.03;;;23.50;66.30;;;;;;4510029;31;20084;-67
2022/07/31 11:33:48;;;;;;;9.20;4.78;;;23.50;66.40;;;;;;4510245;31;20387;-68
2022/07/31 11:36:19;;;;;;;9.43;4.28;;;23.50;66.50;;;;;;4486152;31;20081;-67
2022/07/31 11:38:48;;;;;;;6.22;3.60;;;23.50;66.70;;;;;;4509938;31;20158;-67
2022/07/31 11:41:15;;;;;;;4.95;3.58;;;23.50;66.80;;;;;;4510165;31;20076;-67
2022/07/31 11:43:46;;;;;;;7.30;3.40;;;23.50;66.90;;;;;;4509739;31;20083;-67
2022/07/31 11:46:33;;;;;;;11.82;3.78;;;23.40;66.90;;;;;;4510090;31;20080;-68
2022/07/31 11:49:00;;;;;;;6.60;3.90;;;23.50;67.00;;;;;;4509673;31;20211;-67
2022/07/31 11:51:27;;;;;;;6.22;3.78;;;23.50;67.10;;;;;;4509781;31;20088;-67
2022/07/31 11:53:54;;;;;;;8.15;3.65;;;23.40;67.10;;;;;;4509824;31;20284;-67
2022/07/31 11:56:21;;;;;;;4.43;3.10;;;23.50;67.10;;;;;;4509548;31;20143;-67
2022/07/31 11:58:55;;;;;;;6.00;3.22;;;23.40;67.00;;;;;;4509895;31;20100;-68
2022/07/31 12:01:28;;;;;;;5.43;3.22;;;23.50;67.00;;;;;;4509989;31;20219;-67
2022/07/31 12:03:56;;;;;;;6.10;3.63;;;23.50;67.10;;;;;;4509722;31;20120;-67
2022/07/31 12:06:22;;;;;;;5.57;3.50;;;23.50;67.30;;;;;;4495673;31;20483;-67
2022/07/31 12:08:49;;;;;;;5.85;3.53;;;23.50;67.40;;;;;;4509319;31;20189;-67
2022/07/31 12:11:20;;;;;;;7.45;3.30;;;23.40;67.40;;;;;;4509749;31;20156;-67
2022/07/31 12:13:49;;;;;;;5.10;3.45;;;23.40;67.40;;;;;;4510048;31;20083;-68
2022/07/31 12:16:17;;;;;;;5.20;3.40;;;23.40;68.20;;;;;;4509562;31;20080;-68
2022/07/31 12:18:55;;;;;;;4.85;3.55;;;23.40;67.30;;;;;;4495129;31;20085;-68
2022/07/31 12:21:32;;;;;;;6.00;3.13;;;23.40;67.50;;;;;;4509871;31;20085;-68
2022/07/31 12:23:59;;;;;;;7.13;3.13;;;23.40;67.40;;;;;;4510008;31;20091;-68
2022/07/31 12:26:30;;;;;;;5.80;3.50;;;23.40;67.50;;;;;;4509574;31;20084;-67
2022/07/31 12:28:57;;;;;;;8.15;3.00;;;23.40;67.60;;;;;;4509385;31;20087;-68
2022/07/31 12:31:23;;;;;;;10.73;3.92;;;23.40;67.70;;;;;;4509100;31;20689;-68
2022/07/31 12:33:49;;;;;;;4.95;2.83;;;23.40;67.70;;;;;;4509427;31;20065;-68
2022/07/31 12:36:16;;;;;;;6.13;3.40;;;23.40;67.70;;;;;;4509620;31;20081;-68
2022/07/31 12:38:43;;;;;;;4.35;3.42;;;23.40;67.70;;;;;;4509150;31;20072;-68
2022/07/31 12:41:10;;;;;;;3.95;3.03;;;23.40;67.70;;;;;;4509356;31;20182;-68
2022/07/31 12:43:35;;;;;;;6.55;2.58;;;23.40;67.80;;;;;;4509635;31;20131;-68
2022/07/31 12:46:04;;;;;;;4.75;2.72;;;23.40;67.80;;;;;;4509270;31;20199;-68
2022/07/31 12:48:33;;;;;;;5.40;2.78;;;23.40;67.70;;;;;;4509527;31;20526;-69
2022/07/31 12:51:02;;;;;;;3.60;2.80;;;23.40;67.80;;;;;;4508917;31;20534;-68